createdAt,value
2017-09-15T00:00:38.951Z,21.96
2017-09-15T00:01:19.400Z,21.92
2017-09-15T00:01:59.841Z,21.99
2017-09-15T00:02:40.287Z,21.94
2017-09-15T00:03:20.733Z,22
2017-09-15T00:04:01.182Z,22
2017-09-15T00:04:41.624Z,21.97
2017-09-15T00:05:22.072Z,21.97
2017-09-15T00:06:02.516Z,21.94
2017-09-15T00:06:42.964Z,22
2017-09-15T00:07:23.405Z,21.97
2017-09-15T00:08:03.853Z,21.99
2017-09-15T00:08:44.303Z,21.99
2017-09-15T00:09:24.745Z,21.97
2017-09-15T00:10:05.180Z,21.99
2017-09-15T00:10:45.626Z,22.03
2017-09-15T00:11:26.073Z,21.94
2017-09-15T00:12:06.526Z,22
2017-09-15T00:12:46.974Z,22
2017-09-15T00:13:27.418Z,21.99
2017-09-15T00:14:07.872Z,22.01
2017-09-15T00:14:48.319Z,21.97
2017-09-15T00:15:28.762Z,22
2017-09-15T00:16:09.208Z,21.96
2017-09-15T00:16:49.657Z,21.94
2017-09-15T00:17:30.120Z,21.94
2017-09-15T00:18:10.581Z,21.97
2017-09-15T00:18:51.036Z,21.99
2017-09-15T00:19:31.479Z,21.94
2017-09-15T00:20:11.932Z,21.92
2017-09-15T00:20:52.379Z,21.92
2017-09-15T00:21:32.821Z,21.94
2017-09-15T00:22:13.278Z,21.92
2017-09-15T00:22:53.725Z,21.89
2017-09-15T00:23:34.167Z,21.92
2017-09-15T00:24:14.610Z,21.96
2017-09-15T00:24:55.052Z,21.94
2017-09-15T00:25:35.499Z,21.92
2017-09-15T00:26:15.950Z,21.91
2017-09-15T00:26:56.403Z,21.94
2017-09-15T00:27:36.852Z,21.89
2017-09-15T00:28:17.306Z,21.92
2017-09-15T00:28:57.754Z,21.94
2017-09-15T00:29:38.198Z,21.99
2017-09-15T00:30:18.641Z,21.97
2017-09-15T00:30:59.089Z,21.92
2017-09-15T00:31:39.536Z,21.94
2017-09-15T00:32:19.975Z,21.97
2017-09-15T00:33:00.422Z,21.92
2017-09-15T00:33:40.862Z,21.99
2017-09-15T00:34:21.311Z,21.96
2017-09-15T00:35:01.760Z,21.92
2017-09-15T00:35:42.211Z,21.97
2017-09-15T00:36:22.654Z,21.89
2017-09-15T00:37:03.106Z,21.99
2017-09-15T00:37:43.561Z,21.92
2017-09-15T00:38:24.013Z,22.04
2017-09-15T00:39:04.454Z,21.97
2017-09-15T00:39:44.899Z,21.92
2017-09-15T00:40:25.348Z,21.94
2017-09-15T00:41:05.794Z,21.91
2017-09-15T00:41:46.242Z,22.04
2017-09-15T00:42:26.691Z,21.96
2017-09-15T00:43:07.138Z,21.84
2017-09-15T00:43:47.583Z,21.97
2017-09-15T00:44:28.031Z,21.96
2017-09-15T00:45:08.478Z,21.92
2017-09-15T00:45:48.926Z,21.91
2017-09-15T00:46:29.375Z,21.85
2017-09-15T00:47:09.828Z,21.91
2017-09-15T00:47:50.277Z,21.92
2017-09-15T00:48:30.730Z,21.85
2017-09-15T00:49:11.175Z,21.96
2017-09-15T00:49:51.626Z,21.94
2017-09-15T00:50:32.073Z,21.89
2017-09-15T00:51:12.522Z,21.97
2017-09-15T00:51:52.972Z,21.97
2017-09-15T00:52:33.418Z,21.94
2017-09-15T00:53:13.862Z,21.84
2017-09-15T00:53:54.313Z,21.94
2017-09-15T00:54:34.761Z,21.97
2017-09-15T00:55:15.208Z,21.92
2017-09-15T00:55:55.651Z,21.97
2017-09-15T00:56:36.103Z,21.92
2017-09-15T00:57:16.551Z,21.94
2017-09-15T00:57:56.996Z,21.99
2017-09-15T00:58:37.453Z,21.94
2017-09-15T00:59:17.892Z,21.99
2017-09-15T00:59:58.338Z,21.91
2017-09-15T01:00:38.783Z,21.99
2017-09-15T01:01:19.233Z,21.89
2017-09-15T01:01:59.677Z,21.99
2017-09-15T01:02:40.132Z,21.96
2017-09-15T01:03:20.579Z,21.85
2017-09-15T01:04:01.025Z,22
2017-09-15T01:04:41.480Z,21.99
2017-09-15T01:05:21.927Z,21.97
2017-09-15T01:06:02.376Z,21.97
2017-09-15T01:06:42.824Z,22.01
2017-09-15T01:07:23.272Z,21.99
2017-09-15T01:08:03.720Z,21.92
2017-09-15T01:08:44.170Z,21.85
2017-09-15T01:09:24.618Z,21.94
2017-09-15T01:10:05.072Z,21.97
2017-09-15T01:10:45.518Z,22
2017-09-15T01:11:25.962Z,21.99
2017-09-15T01:12:06.403Z,21.99
2017-09-15T01:12:46.846Z,22.03
2017-09-15T01:13:27.281Z,22.01
2017-09-15T01:14:07.728Z,21.94
2017-09-15T01:14:48.175Z,21.96
2017-09-15T01:15:28.625Z,22.04
2017-09-15T01:16:09.079Z,22.04
2017-09-15T01:16:49.517Z,22.07
2017-09-15T01:17:29.963Z,22.08
2017-09-15T01:18:10.412Z,22.03
2017-09-15T01:18:50.853Z,22.08
2017-09-15T01:19:31.294Z,22.03
2017-09-15T01:20:11.743Z,22.1
2017-09-15T01:20:52.192Z,21.99
2017-09-15T01:21:32.644Z,22.03
2017-09-15T01:22:13.104Z,22.04
2017-09-15T01:22:53.553Z,22.08
2017-09-15T01:23:34.003Z,22.06
2017-09-15T01:24:14.451Z,22.06
2017-09-15T01:24:54.886Z,22.06
2017-09-15T01:25:35.339Z,22.06
2017-09-15T01:26:15.788Z,22.07
2017-09-15T01:26:56.284Z,22.1
2017-09-15T01:27:36.736Z,22.04
2017-09-15T01:28:17.181Z,22.03
2017-09-15T01:28:57.634Z,22.04
2017-09-15T01:29:38.083Z,22.06
2017-09-15T01:30:18.540Z,22.04
2017-09-15T01:30:58.981Z,22.06
2017-09-15T01:31:39.426Z,22.08
2017-09-15T01:32:19.873Z,22.08
2017-09-15T01:33:00.316Z,22.06
2017-09-15T01:33:40.768Z,22.06
2017-09-15T01:34:21.219Z,22.06
2017-09-15T01:35:01.668Z,22.06
2017-09-15T01:35:42.113Z,22.06
2017-09-15T01:36:22.568Z,22.08
2017-09-15T01:37:03.012Z,22.08
2017-09-15T01:37:43.448Z,22.04
2017-09-15T01:38:23.900Z,22.1
2017-09-15T01:39:04.344Z,22.04
2017-09-15T01:39:44.794Z,22.1
2017-09-15T01:40:25.251Z,22.07
2017-09-15T01:41:05.695Z,22.08
2017-09-15T01:41:46.143Z,22
2017-09-15T01:42:26.600Z,22
2017-09-15T01:43:07.045Z,22.03
2017-09-15T01:43:47.505Z,22.12
2017-09-15T01:44:27.945Z,22.03
2017-09-15T01:45:08.398Z,22.14
2017-09-15T01:45:48.843Z,22.01
2017-09-15T01:46:29.311Z,22.12
2017-09-15T01:47:09.762Z,22.01
2017-09-15T01:47:50.232Z,22.04
2017-09-15T01:48:30.700Z,22.04
2017-09-15T01:49:11.150Z,22.06
2017-09-15T01:49:51.599Z,22.12
2017-09-15T01:50:32.061Z,22.03
2017-09-15T01:51:12.509Z,22.08
2017-09-15T01:51:52.976Z,22.14
2017-09-15T01:52:33.434Z,22.1
2017-09-15T01:53:13.882Z,22.12
2017-09-15T01:53:54.334Z,22.04
2017-09-15T01:54:34.798Z,22.06
2017-09-15T01:55:15.239Z,22.03
2017-09-15T01:55:55.698Z,22.08
2017-09-15T01:56:36.150Z,22.01
2017-09-15T01:57:16.618Z,22.07
2017-09-15T01:57:57.063Z,22.07
2017-09-15T01:58:37.514Z,21.97
2017-09-15T01:59:17.953Z,22.08
2017-09-15T01:59:58.397Z,22.08
2017-09-15T02:00:38.847Z,22.04
2017-09-15T02:01:19.302Z,22.04
2017-09-15T02:01:59.756Z,22.04
2017-09-15T02:02:40.213Z,22.01
2017-09-15T02:03:20.655Z,22.01
2017-09-15T02:04:01.104Z,22.01
2017-09-15T02:04:41.555Z,21.96
2017-09-15T02:05:21.996Z,22.01
2017-09-15T02:06:02.448Z,22.03
2017-09-15T02:06:42.896Z,22.04
2017-09-15T02:07:23.349Z,22
2017-09-15T02:08:03.793Z,22
2017-09-15T02:08:44.245Z,21.96
2017-09-15T02:09:24.700Z,22.01
2017-09-15T02:10:05.148Z,22.03
2017-09-15T02:10:45.581Z,22.01
2017-09-15T02:11:26.029Z,22
2017-09-15T02:12:06.498Z,21.94
2017-09-15T02:12:46.909Z,22.04
2017-09-15T02:13:27.362Z,21.99
2017-09-15T02:14:07.807Z,22
2017-09-15T02:14:48.259Z,22
2017-09-15T02:15:28.702Z,22
2017-09-15T02:16:09.149Z,21.97
2017-09-15T02:16:49.598Z,21.99
2017-09-15T02:17:30.069Z,22.01
2017-09-15T02:18:10.507Z,22.01
2017-09-15T02:18:50.947Z,22
2017-09-15T02:19:31.398Z,21.96
2017-09-15T02:20:11.856Z,22.03
2017-09-15T02:20:52.302Z,22
2017-09-15T02:21:32.737Z,21.99
2017-09-15T02:22:13.199Z,21.96
2017-09-15T02:22:53.641Z,22
2017-09-15T02:23:34.092Z,22.01
2017-09-15T02:24:14.547Z,22
2017-09-15T02:24:54.994Z,22
2017-09-15T02:25:35.444Z,21.96
2017-09-15T02:26:15.895Z,22.01
2017-09-15T02:26:56.339Z,21.99
2017-09-15T02:27:36.790Z,22
2017-09-15T02:28:17.240Z,21.99
2017-09-15T02:28:57.682Z,21.94
2017-09-15T02:29:38.127Z,22
2017-09-15T02:30:18.570Z,22
2017-09-15T02:30:59.017Z,21.96
2017-09-15T02:31:39.465Z,21.99
2017-09-15T02:32:19.914Z,21.96
2017-09-15T02:33:00.366Z,21.99
2017-09-15T02:33:40.841Z,22
2017-09-15T02:34:21.285Z,21.99
2017-09-15T02:35:01.727Z,21.96
2017-09-15T02:35:42.180Z,22.01
2017-09-15T02:36:22.629Z,22.01
2017-09-15T02:37:03.067Z,22.01
2017-09-15T02:37:43.512Z,22
2017-09-15T02:38:23.951Z,21.96
2017-09-15T02:39:04.403Z,22
2017-09-15T02:39:44.845Z,22
2017-09-15T02:40:25.292Z,22.03
2017-09-15T02:41:05.740Z,21.97
2017-09-15T02:41:46.201Z,21.97
2017-09-15T02:42:26.638Z,22.01
2017-09-15T02:43:07.084Z,21.97
2017-09-15T02:43:47.533Z,22
2017-09-15T02:44:27.984Z,21.96
2017-09-15T02:45:08.430Z,21.99
2017-09-15T02:45:48.879Z,21.99
2017-09-15T02:46:29.321Z,21.96
2017-09-15T02:47:09.774Z,21.97
2017-09-15T02:47:50.238Z,21.91
2017-09-15T02:48:30.692Z,22
2017-09-15T02:49:11.146Z,21.89
2017-09-15T02:49:51.609Z,21.99
2017-09-15T02:50:32.027Z,21.97
2017-09-15T02:51:12.473Z,21.94
2017-09-15T02:51:53.002Z,22
2017-09-15T02:52:33.441Z,21.99
2017-09-15T02:53:13.890Z,21.92
2017-09-15T02:53:54.345Z,21.84
2017-09-15T02:54:34.807Z,21.92
2017-09-15T02:55:15.260Z,21.97
2017-09-15T02:55:55.705Z,21.91
2017-09-15T02:56:36.156Z,21.97
2017-09-15T02:57:16.606Z,21.94
2017-09-15T02:57:57.054Z,21.89
2017-09-15T02:58:37.497Z,21.85
2017-09-15T02:59:17.943Z,21.92
2017-09-15T02:59:58.391Z,21.96
2017-09-15T03:00:38.838Z,21.91
2017-09-15T03:01:19.286Z,21.97
2017-09-15T03:01:59.741Z,21.85
2017-09-15T03:02:40.166Z,21.97
2017-09-15T03:03:20.623Z,21.96
2017-09-15T03:04:01.066Z,21.97
2017-09-15T03:04:41.499Z,21.89
2017-09-15T03:05:21.951Z,21.94
2017-09-15T03:06:02.400Z,21.92
2017-09-15T03:06:42.857Z,21.97
2017-09-15T03:07:23.312Z,21.88
2017-09-15T03:08:03.762Z,21.92
2017-09-15T03:08:44.211Z,21.97
2017-09-15T03:09:24.664Z,21.84
2017-09-15T03:10:05.109Z,21.84
2017-09-15T03:10:45.558Z,21.92
2017-09-15T03:11:26.009Z,21.96
2017-09-15T03:12:06.460Z,21.89
2017-09-15T03:12:46.912Z,21.84
2017-09-15T03:13:27.364Z,21.83
2017-09-15T03:14:07.811Z,21.91
2017-09-15T03:14:48.265Z,21.89
2017-09-15T03:15:28.726Z,21.85
2017-09-15T03:16:09.166Z,21.94
2017-09-15T03:16:49.605Z,21.92
2017-09-15T03:17:30.047Z,21.88
2017-09-15T03:18:10.505Z,21.97
2017-09-15T03:18:50.956Z,21.88
2017-09-15T03:19:31.411Z,21.96
2017-09-15T03:20:11.862Z,21.92
2017-09-15T03:20:52.313Z,21.94
2017-09-15T03:21:32.765Z,21.91
2017-09-15T03:22:13.210Z,21.84
2017-09-15T03:22:53.660Z,21.89
2017-09-15T03:23:34.103Z,21.92
2017-09-15T03:24:14.559Z,21.97
2017-09-15T03:24:55.004Z,21.92
2017-09-15T03:25:35.469Z,21.85
2017-09-15T03:26:15.916Z,21.91
2017-09-15T03:26:56.365Z,21.88
2017-09-15T03:27:36.814Z,21.84
2017-09-15T03:28:17.263Z,21.92
2017-09-15T03:28:57.723Z,21.91
2017-09-15T03:29:38.170Z,21.89
2017-09-15T03:30:18.621Z,21.84
2017-09-15T03:30:59.074Z,21.91
2017-09-15T03:31:39.521Z,21.89
2017-09-15T03:32:19.971Z,22
2017-09-15T03:33:00.435Z,21.89
2017-09-15T03:33:40.880Z,21.81
2017-09-15T03:34:21.336Z,21.92
2017-09-15T03:35:01.779Z,21.94
2017-09-15T03:35:42.296Z,21.99
2017-09-15T03:36:22.666Z,21.88
2017-09-15T03:37:03.114Z,21.85
2017-09-15T03:37:43.567Z,21.99
2017-09-15T03:38:24.002Z,21.91
2017-09-15T03:39:04.450Z,21.96
2017-09-15T03:39:44.895Z,21.89
2017-09-15T03:40:25.636Z,21.88
2017-09-15T03:41:06.085Z,21.88
2017-09-15T03:41:46.533Z,21.88
2017-09-15T03:42:26.989Z,21.84
2017-09-15T03:43:07.433Z,21.88
2017-09-15T03:43:47.881Z,21.88
2017-09-15T03:44:28.401Z,21.96
2017-09-15T03:45:08.849Z,21.85
2017-09-15T03:45:49.297Z,21.91
2017-09-15T03:46:29.746Z,21.85
2017-09-15T03:47:10.202Z,21.94
2017-09-15T03:47:50.645Z,21.81
2017-09-15T03:48:31.100Z,21.91
2017-09-15T03:49:11.554Z,21.88
2017-09-15T03:49:52.002Z,21.94
2017-09-15T03:50:32.440Z,21.88
2017-09-15T03:51:12.908Z,21.85
2017-09-15T03:51:53.354Z,21.92
2017-09-15T03:52:33.797Z,21.88
2017-09-15T03:53:14.257Z,21.85
2017-09-15T03:53:54.705Z,21.96
2017-09-15T03:54:35.161Z,21.89
2017-09-15T03:55:15.609Z,21.84
2017-09-15T03:55:56.052Z,21.84
2017-09-15T03:56:36.545Z,21.91
2017-09-15T03:57:17.004Z,21.85
2017-09-15T03:57:57.444Z,21.89
2017-09-15T03:58:37.898Z,21.92
2017-09-15T03:59:18.349Z,21.91
2017-09-15T03:59:58.794Z,21.89
2017-09-15T04:00:39.246Z,21.88
2017-09-15T04:01:19.695Z,21.89
2017-09-15T04:02:00.147Z,21.88
2017-09-15T04:02:40.592Z,21.91
2017-09-15T04:03:21.043Z,21.92
2017-09-15T04:04:01.493Z,21.92
2017-09-15T04:04:41.943Z,21.99
2017-09-15T04:05:22.390Z,21.91
2017-09-15T04:06:02.835Z,21.97
2017-09-15T04:06:43.287Z,21.96
2017-09-15T04:07:23.738Z,21.88
2017-09-15T04:08:04.190Z,21.99
2017-09-15T04:08:44.641Z,22.01
2017-09-15T04:09:25.100Z,21.97
2017-09-15T04:10:05.524Z,22
2017-09-15T04:10:45.963Z,21.96
2017-09-15T04:11:26.407Z,22.04
2017-09-15T04:12:06.860Z,22.07
2017-09-15T04:12:47.311Z,22.04
2017-09-15T04:13:27.756Z,22.08
2017-09-15T04:14:08.193Z,22.1
2017-09-15T04:14:48.642Z,22.08
2017-09-15T04:15:29.101Z,22.01
2017-09-15T04:16:09.549Z,22.16
2017-09-15T04:16:50.010Z,22.04
2017-09-15T04:17:30.441Z,22.14
2017-09-15T04:18:10.896Z,22.16
2017-09-15T04:18:51.344Z,22.08
2017-09-15T04:19:31.791Z,22.19
2017-09-15T04:20:12.241Z,22.15
2017-09-15T04:20:52.688Z,22.14
2017-09-15T04:21:33.135Z,22.15
2017-09-15T04:22:13.588Z,22.15
2017-09-15T04:22:54.028Z,22.19
2017-09-15T04:23:34.478Z,22.19
2017-09-15T04:24:14.930Z,22.18
2017-09-15T04:24:55.373Z,22.22
2017-09-15T04:25:35.826Z,22.16
2017-09-15T04:26:16.269Z,22.23
2017-09-15T04:26:56.721Z,22.23
2017-09-15T04:27:37.170Z,22.18
2017-09-15T04:28:17.624Z,22.28
2017-09-15T04:28:58.070Z,22.25
2017-09-15T04:29:38.522Z,22.25
2017-09-15T04:30:18.972Z,22.33
2017-09-15T04:30:59.424Z,22.23
2017-09-15T04:31:39.867Z,22.26
2017-09-15T04:32:20.316Z,22.28
2017-09-15T04:33:00.765Z,22.23
2017-09-15T04:33:41.241Z,22.26
2017-09-15T04:34:21.692Z,22.33
2017-09-15T04:35:02.142Z,22.28
2017-09-15T04:35:42.582Z,22.25
2017-09-15T04:36:23.030Z,22.33
2017-09-15T04:37:03.481Z,22.25
2017-09-15T04:37:43.941Z,22.28
2017-09-15T04:38:24.392Z,22.36
2017-09-15T04:39:04.842Z,22.28
2017-09-15T04:39:45.306Z,22.3
2017-09-15T04:40:25.746Z,22.25
2017-09-15T04:41:06.192Z,22.31
2017-09-15T04:41:46.641Z,22.26
2017-09-15T04:42:27.094Z,22.3
2017-09-15T04:43:07.545Z,22.3
2017-09-15T04:43:47.995Z,22.28
2017-09-15T04:44:28.461Z,22.26
2017-09-15T04:45:08.919Z,22.28
2017-09-15T04:45:49.368Z,22.3
2017-09-15T04:46:29.810Z,22.28
2017-09-15T04:47:10.259Z,22.3
2017-09-15T04:47:50.720Z,22.28
2017-09-15T04:48:31.165Z,22.3
2017-09-15T04:49:11.611Z,22.25
2017-09-15T04:49:52.055Z,22.25
2017-09-15T04:50:32.501Z,22.26
2017-09-15T04:51:12.939Z,22.25
2017-09-15T04:51:53.380Z,22.26
2017-09-15T04:52:33.829Z,22.3
2017-09-15T04:53:14.271Z,22.3
2017-09-15T04:53:54.718Z,22.33
2017-09-15T04:54:35.154Z,22.23
2017-09-15T04:55:15.604Z,22.31
2017-09-15T04:55:56.053Z,22.25
2017-09-15T04:56:36.502Z,22.23
2017-09-15T04:57:16.943Z,22.34
2017-09-15T04:57:57.394Z,22.3
2017-09-15T04:58:37.841Z,22.33
2017-09-15T04:59:18.273Z,22.26
2017-09-15T04:59:58.711Z,22.26
2017-09-15T05:00:39.152Z,22.28
2017-09-15T05:01:19.604Z,22.28
2017-09-15T05:02:00.047Z,22.33
2017-09-15T05:02:40.496Z,22.25
2017-09-15T05:03:20.941Z,22.23
2017-09-15T05:04:01.393Z,22.25
2017-09-15T05:04:41.826Z,22.28
2017-09-15T05:05:22.278Z,22.3
2017-09-15T05:06:02.717Z,22.23
2017-09-15T05:06:43.172Z,22.23
2017-09-15T05:07:23.652Z,22.26
2017-09-15T05:08:04.098Z,22.22
2017-09-15T05:08:44.552Z,22.3
2017-09-15T05:09:25.034Z,22.25
2017-09-15T05:10:05.449Z,22.22
2017-09-15T05:10:45.900Z,22.19
2017-09-15T05:11:26.343Z,22.28
2017-09-15T05:12:06.816Z,22.26
2017-09-15T05:12:47.267Z,22.25
2017-09-15T05:13:27.713Z,22.21
2017-09-15T05:15:40.548Z,22.22
2017-09-15T05:16:20.984Z,22.26
2017-09-15T05:17:01.428Z,22.16
2017-09-15T05:17:41.871Z,22.23
2017-09-15T05:18:22.319Z,22.19
2017-09-15T05:19:02.821Z,22.25
2017-09-15T05:19:43.270Z,22.22
2017-09-15T05:20:23.718Z,22.23
2017-09-15T05:21:04.167Z,22.23
2017-09-15T05:21:44.618Z,22.19
2017-09-15T05:22:25.063Z,22.19
2017-09-15T05:23:05.510Z,22.18
2017-09-15T05:23:45.958Z,22.16
2017-09-15T05:24:26.405Z,22.18
2017-09-15T05:25:06.859Z,22.22
2017-09-15T05:25:47.308Z,22.23
2017-09-15T05:26:27.763Z,22.16
2017-09-15T05:27:08.282Z,22.19
2017-09-15T05:27:48.729Z,22.22
2017-09-15T05:28:29.179Z,22.16
2017-09-15T05:29:09.648Z,22.22
2017-09-15T05:29:50.278Z,22.16
2017-09-15T05:30:30.717Z,22.19
2017-09-15T05:31:11.167Z,22.23
2017-09-15T05:31:51.616Z,22.21
2017-09-15T05:32:32.060Z,22.21
2017-09-15T05:33:12.513Z,22.16
2017-09-15T05:33:52.961Z,22.22
2017-09-15T05:34:33.407Z,22.19
2017-09-15T05:35:13.855Z,22.19
2017-09-15T05:35:54.308Z,22.19
2017-09-15T05:36:34.853Z,22.16
2017-09-15T05:37:15.303Z,22.15
2017-09-15T05:37:55.756Z,22.21
2017-09-15T05:38:36.199Z,22.18
2017-09-15T05:39:16.650Z,22.19
2017-09-15T05:39:57.096Z,22.25
2017-09-15T05:40:37.540Z,22.18
2017-09-15T05:41:17.986Z,22.19
2017-09-15T05:41:58.442Z,22.16
2017-09-15T05:42:38.890Z,22.25
2017-09-15T05:43:19.334Z,22.16
2017-09-15T05:43:59.780Z,22.16
2017-09-15T05:44:40.231Z,22.18
2017-09-15T05:45:20.680Z,22.18
2017-09-15T05:46:01.131Z,22.21
2017-09-15T05:46:41.583Z,22.19
2017-09-15T05:47:22.029Z,22.23
2017-09-15T05:48:02.478Z,22.21
2017-09-15T05:48:42.923Z,22.18
2017-09-15T05:49:23.748Z,22.23
2017-09-15T05:50:04.192Z,22.16
2017-09-15T05:50:44.639Z,22.18
2017-09-15T05:51:25.087Z,22.22
2017-09-15T05:53:02.523Z,22.19
2017-09-15T05:53:42.966Z,22.21
2017-09-15T05:54:23.421Z,22.25
2017-09-15T05:55:03.862Z,22.22
2017-09-15T05:55:44.305Z,22.23
2017-09-15T05:56:24.750Z,22.21
2017-09-15T05:57:05.200Z,22.22
2017-09-15T05:57:45.635Z,22.16
2017-09-15T05:58:26.067Z,22.22
2017-09-15T05:59:06.518Z,22.18
2017-09-15T05:59:46.987Z,22.21
2017-09-15T06:00:27.431Z,22.23
2017-09-15T06:01:07.884Z,22.26
2017-09-15T06:01:48.336Z,22.19
2017-09-15T06:02:28.782Z,22.23
2017-09-15T06:03:09.229Z,22.16
2017-09-15T06:03:49.674Z,22.16
2017-09-15T06:04:30.135Z,22.21
2017-09-15T06:05:10.583Z,22.19
2017-09-15T06:05:51.038Z,22.23
2017-09-15T06:06:31.484Z,22.26
2017-09-15T06:07:11.939Z,22.25
2017-09-15T06:07:52.386Z,22.21
2017-09-15T06:08:32.846Z,22.25
2017-09-15T06:09:13.283Z,22.26
2017-09-15T06:09:53.732Z,22.23
2017-09-15T06:10:34.188Z,22.19
2017-09-15T06:11:14.638Z,22.23
2017-09-15T06:11:55.085Z,22.28
2017-09-15T06:12:35.526Z,22.28
2017-09-15T06:13:15.969Z,22.23
2017-09-15T06:13:56.418Z,22.28
2017-09-15T06:14:36.867Z,22.18
2017-09-15T06:15:17.322Z,22.21
2017-09-15T06:15:57.775Z,22.15
2017-09-15T06:16:38.225Z,22.16
2017-09-15T06:17:18.681Z,22.22
2017-09-15T06:17:59.129Z,22.18
2017-09-15T06:18:39.574Z,22.19
2017-09-15T06:19:20.027Z,22.16
2017-09-15T06:20:00.476Z,22.23
2017-09-15T06:20:40.919Z,22.23
2017-09-15T06:21:21.360Z,22.18
2017-09-15T06:22:01.799Z,22.25
2017-09-15T06:22:42.251Z,22.19
2017-09-15T06:23:22.701Z,22.18
2017-09-15T06:24:03.146Z,22.23
2017-09-15T06:24:43.595Z,22.26
2017-09-15T06:25:24.045Z,22.16
2017-09-15T06:26:04.490Z,22.23
2017-09-15T06:26:44.938Z,22.25
2017-09-15T06:27:25.387Z,22.23
2017-09-15T06:28:05.825Z,22.23
2017-09-15T06:28:46.264Z,22.23
2017-09-15T06:29:26.706Z,22.19
2017-09-15T06:30:07.154Z,22.26
2017-09-15T06:30:47.599Z,22.19
2017-09-15T06:31:28.048Z,22.18
2017-09-15T06:32:08.489Z,22.18
2017-09-15T06:32:48.936Z,22.22
2017-09-15T06:33:29.386Z,22.25
2017-09-15T06:34:09.832Z,22.16
2017-09-15T06:34:50.280Z,22.28
2017-09-15T06:35:30.728Z,22.28
2017-09-15T06:36:11.180Z,22.25
2017-09-15T06:36:51.631Z,22.28
2017-09-15T06:37:32.081Z,22.23
2017-09-15T06:38:12.526Z,22.21
2017-09-15T06:38:52.969Z,22.3
2017-09-15T06:39:33.416Z,22.26
2017-09-15T06:40:13.862Z,22.25
2017-09-15T06:40:54.303Z,22.28
2017-09-15T06:41:34.730Z,22.25
2017-09-15T06:42:15.179Z,22.25
2017-09-15T06:42:55.625Z,22.28
2017-09-15T06:43:36.080Z,22.26
2017-09-15T06:44:16.529Z,22.23
2017-09-15T06:44:56.960Z,22.23
2017-09-15T06:45:37.411Z,22.26
2017-09-15T06:46:17.856Z,22.23
2017-09-15T06:46:58.315Z,22.25
2017-09-15T06:47:38.770Z,22.28
2017-09-15T06:48:19.217Z,22.28
2017-09-15T06:48:59.662Z,22.36
2017-09-15T06:49:40.110Z,22.22
2017-09-15T06:50:20.556Z,22.25
2017-09-15T06:51:01.005Z,22.26
2017-09-15T06:51:41.448Z,22.31
2017-09-15T06:52:21.895Z,22.3
2017-09-15T06:53:02.351Z,22.28
2017-09-15T06:53:42.797Z,22.28
2017-09-15T06:54:23.242Z,22.25
2017-09-15T06:55:03.711Z,22.28
2017-09-15T06:55:44.165Z,22.3
2017-09-15T06:56:24.601Z,22.25
2017-09-15T06:57:05.050Z,22.33
2017-09-15T06:57:45.502Z,22.28
2017-09-15T06:58:25.951Z,22.3
2017-09-15T06:59:06.395Z,22.31
2017-09-15T06:59:46.841Z,22.28
2017-09-15T07:00:27.288Z,22.26
2017-09-15T07:01:07.736Z,22.28
2017-09-15T07:01:48.190Z,22.25
2017-09-15T07:02:28.658Z,22.26
2017-09-15T07:03:09.166Z,22.3
2017-09-15T07:03:49.614Z,22.25
2017-09-15T07:04:30.063Z,22.36
2017-09-15T07:05:10.518Z,22.38
2017-09-15T07:05:50.958Z,22.34
2017-09-15T07:06:31.406Z,22.38
2017-09-15T07:07:11.853Z,22.37
2017-09-15T07:07:52.303Z,22.3
2017-09-15T07:08:32.752Z,22.34
2017-09-15T07:09:13.196Z,22.31
2017-09-15T07:09:53.641Z,22.31
2017-09-15T07:10:34.094Z,22.38
2017-09-15T07:11:14.542Z,22.4
2017-09-15T07:11:54.990Z,22.31
2017-09-15T07:12:35.437Z,22.34
2017-09-15T07:13:15.886Z,22.36
2017-09-15T07:13:56.334Z,22.38
2017-09-15T07:14:36.783Z,22.38
2017-09-15T07:15:17.231Z,22.38
2017-09-15T07:15:57.686Z,22.41
2017-09-15T07:18:10.462Z,22.43
2017-09-15T07:18:50.912Z,22.44
2017-09-15T07:19:31.359Z,22.4
2017-09-15T07:20:11.841Z,22.4
2017-09-15T07:20:52.292Z,22.43
2017-09-15T11:27:31.877Z,23.63
2017-09-15T11:28:12.319Z,23.62
2017-09-15T11:28:52.765Z,23.67
2017-09-15T11:29:33.207Z,23.66
2017-09-15T11:30:13.662Z,23.7
2017-09-15T11:30:54.096Z,23.7
2017-09-15T11:31:34.541Z,23.82
2017-09-15T11:32:14.990Z,23.76
2017-09-15T11:32:55.439Z,23.66
2017-09-15T11:33:35.886Z,23.69
2017-09-15T11:34:16.321Z,23.73
2017-09-15T11:34:56.763Z,23.74
2017-09-15T11:35:37.195Z,23.81
2017-09-15T11:36:17.638Z,23.81
2017-09-15T11:36:58.077Z,23.86
2017-09-15T11:37:38.516Z,23.81
2017-09-15T11:38:18.948Z,23.82
2017-09-15T11:38:59.413Z,23.88
2017-09-15T11:39:39.867Z,23.85
2017-09-15T11:40:20.294Z,23.81
2017-09-15T11:41:00.748Z,23.81
2017-09-15T11:41:41.180Z,23.85
2017-09-15T11:42:21.629Z,23.82
2017-09-15T11:43:02.074Z,23.88
2017-09-15T11:43:42.521Z,23.81
2017-09-15T11:44:22.969Z,23.74
2017-09-15T11:45:03.415Z,23.81
2017-09-15T11:45:43.865Z,23.82
2017-09-15T11:46:24.321Z,23.73
2017-09-15T11:47:04.764Z,23.63
2017-09-15T11:47:45.213Z,23.74
2017-09-15T11:48:25.664Z,23.66
2017-09-15T11:49:06.112Z,23.64
2017-09-15T11:49:46.558Z,23.64
2017-09-15T11:50:27.011Z,23.59
2017-09-15T11:51:07.464Z,23.64
2017-09-15T11:51:47.902Z,23.56
2017-09-15T11:52:28.359Z,23.56
2017-09-15T11:53:08.806Z,23.56
2017-09-15T11:53:49.264Z,23.62
2017-09-15T11:54:29.711Z,23.59
2017-09-15T11:55:10.201Z,23.64
2017-09-15T11:55:50.644Z,23.66
2017-09-15T11:56:31.089Z,23.81
2017-09-15T11:57:11.538Z,23.73
2017-09-15T11:57:51.984Z,23.74
2017-09-15T11:58:32.437Z,23.79
2017-09-15T11:59:12.894Z,23.92
2017-09-15T11:59:53.344Z,23.92
2017-09-15T12:00:33.794Z,23.89
2017-09-15T12:01:14.239Z,23.92
2017-09-15T12:01:54.687Z,23.99
2017-09-15T12:02:35.142Z,23.99
2017-09-15T12:03:15.593Z,23.94
2017-09-15T12:03:56.038Z,23.99
2017-09-15T12:04:36.480Z,24.01
2017-09-15T12:05:16.933Z,24.03
2017-09-15T12:05:57.378Z,23.94
2017-09-15T12:06:37.823Z,24
2017-09-15T12:07:18.595Z,23.91
2017-09-15T12:07:59.046Z,23.94
2017-09-15T12:08:39.484Z,23.95
2017-09-15T12:09:19.933Z,23.86
2017-09-15T12:10:00.382Z,23.92
2017-09-15T12:10:40.829Z,23.89
2017-09-15T12:11:21.275Z,23.88
2017-09-15T12:12:01.725Z,23.92
2017-09-15T12:12:42.167Z,23.91
2017-09-15T12:13:22.618Z,23.74
2017-09-15T12:14:03.069Z,23.85
2017-09-15T12:14:43.520Z,23.85
2017-09-15T12:15:23.976Z,23.89
2017-09-15T12:16:04.423Z,23.85
2017-09-15T12:16:44.871Z,23.85
2017-09-15T12:17:25.322Z,23.79
2017-09-15T12:18:05.778Z,23.81
2017-09-15T12:18:46.227Z,23.73
2017-09-15T12:19:26.679Z,23.76
2017-09-15T12:20:07.124Z,23.81
2017-09-15T12:20:47.561Z,23.7
2017-09-15T12:21:28.004Z,23.7
2017-09-15T12:22:08.450Z,23.69
2017-09-15T12:22:48.894Z,23.73
2017-09-15T12:23:29.399Z,23.73
2017-09-15T12:24:09.862Z,23.74
2017-09-15T12:24:50.296Z,23.64
2017-09-15T12:25:30.743Z,23.64
2017-09-15T12:26:11.194Z,23.67
2017-09-15T12:26:51.640Z,23.62
2017-09-15T12:27:32.090Z,23.71
2017-09-15T12:28:12.540Z,23.69
2017-09-15T12:28:52.985Z,23.7
2017-09-15T12:29:33.432Z,23.66
2017-09-15T12:30:13.883Z,23.7
2017-09-15T12:30:54.331Z,23.73
2017-09-15T12:31:34.777Z,23.67
2017-09-15T12:32:15.224Z,23.76
2017-09-15T12:32:55.702Z,23.63
2017-09-15T12:33:36.149Z,23.66
2017-09-15T12:34:16.605Z,23.66
2017-09-15T12:34:57.056Z,23.66
2017-09-15T12:35:37.503Z,23.7
2017-09-15T12:36:17.953Z,23.64
2017-09-15T12:36:58.402Z,23.7
2017-09-15T12:37:38.841Z,23.62
2017-09-15T12:38:19.298Z,23.69
2017-09-15T12:38:59.744Z,23.66
2017-09-15T12:39:40.193Z,23.66
2017-09-15T12:40:20.639Z,23.58
2017-09-15T12:41:01.089Z,23.66
2017-09-15T12:41:41.544Z,23.64
2017-09-15T12:42:21.987Z,23.58
2017-09-15T12:43:02.434Z,23.62
2017-09-15T12:43:42.889Z,23.63
2017-09-15T12:44:23.336Z,23.64
2017-09-15T12:45:03.791Z,23.62
2017-09-15T12:45:44.235Z,23.56
2017-09-15T12:46:24.680Z,23.59
2017-09-15T12:47:05.123Z,23.52
2017-09-15T12:47:45.574Z,23.55
2017-09-15T12:48:26.018Z,23.52
2017-09-15T12:49:06.462Z,23.51
2017-09-15T12:49:46.910Z,23.48
2017-09-15T12:50:27.373Z,23.54
2017-09-15T12:51:07.820Z,23.44
2017-09-15T12:51:48.271Z,23.51
2017-09-15T12:52:28.703Z,23.49
2017-09-15T12:53:09.148Z,23.45
2017-09-15T12:53:49.602Z,23.47
2017-09-15T12:54:30.045Z,23.44